sensor_id;sensor_type;location;lat;lon;timestamp;P1;durP1;ratioP1;P2;durP2;ratioP2
29466;SDS011;60968;37.490;-122.288;2023-04-23T00:02:42;12.80;;;2.77;;
29466;SDS011;60968;37.490;-122.288;2023-04-23T00:05:44;8.87;;;2.30;;
29466;SDS011;60968;37.490;-122.288;2023-04-23T00:08:47;11.23;;;2.70;;
29466;SDS011;60968;37.490;-122.288;2023-04-23T00:11:51;15.43;;;3.17;;
29466;SDS011;60968;37.490;-122.288;2023-04-23T00:14:52;11.00;;;2.97;;
29466;SDS011;60968;37.490;-122.288;2023-04-23T00:17:53;12.63;;;2.50;;
29466;SDS011;60968;37.490;-122.288;2023-04-23T00:20:54;10.13;;;2.20;;
29466;SDS011;60968;37.490;-122.288;2023-04-23T00:23:56;10.07;;;2.80;;
29466;SDS011;60968;37.490;-122.288;2023-04-23T00:26:57;13.57;;;2.53;;
29466;SDS011;60968;37.490;-122.288;2023-04-23T00:29:58;11.63;;;2.30;;
29466;SDS011;60968;37.490;-122.288;2023-04-23T00:33:00;12.83;;;2.77;;
29466;SDS011;60968;37.490;-122.288;2023-04-23T00:36:01;11.33;;;2.70;;
29466;SDS011;60968;37.490;-122.288;2023-04-23T00:39:02;7.93;;;2.10;;
29466;SDS011;60968;37.490;-122.288;2023-04-23T00:42:03;9.50;;;2.17;;
29466;SDS011;60968;37.490;-122.288;2023-04-23T00:45:08;9.60;;;2.60;;
29466;SDS011;60968;37.490;-122.288;2023-04-23T00:48:10;9.90;;;2.47;;
29466;SDS011;60968;37.490;-122.288;2023-04-23T00:51:12;11.83;;;2.20;;
29466;SDS011;60968;37.490;-122.288;2023-04-23T00:54:15;12.47;;;2.37;;
29466;SDS011;60968;37.490;-122.288;2023-04-23T00:57:16;10.60;;;2.33;;
29466;SDS011;60968;37.490;-122.288;2023-04-23T01:00:18;14.57;;;2.77;;
29466;SDS011;60968;37.490;-122.288;2023-04-23T01:03:21;16.73;;;3.63;;
29466;SDS011;60968;37.490;-122.288;2023-04-23T01:06:28;12.03;;;3.17;;
29466;SDS011;60968;37.490;-122.288;2023-04-23T01:09:33;10.17;;;2.70;;
29466;SDS011;60968;37.490;-122.288;2023-04-23T01:12:36;14.90;;;2.67;;
29466;SDS011;60968;37.490;-122.288;2023-04-23T01:15:38;13.90;;;2.73;;
29466;SDS011;60968;37.490;-122.288;2023-04-23T01:18:40;12.57;;;2.47;;
29466;SDS011;60968;37.490;-122.288;2023-04-23T01:21:41;16.07;;;3.13;;
29466;SDS011;60968;37.490;-122.288;2023-04-23T01:24:42;15.37;;;2.87;;
29466;SDS011;60968;37.490;-122.288;2023-04-23T01:27:44;15.27;;;3.03;;
29466;SDS011;60968;37.490;-122.288;2023-04-23T01:30:45;17.13;;;2.70;;
29466;SDS011;60968;37.490;-122.288;2023-04-23T01:33:46;13.20;;;2.93;;
29466;SDS011;60968;37.490;-122.288;2023-04-23T01:36:50;12.27;;;3.70;;
29466;SDS011;60968;37.490;-122.288;2023-04-23T01:39:52;12.17;;;2.87;;
29466;SDS011;60968;37.490;-122.288;2023-04-23T01:42:55;15.00;;;3.17;;
29466;SDS011;60968;37.490;-122.288;2023-04-23T01:45:56;13.13;;;3.07;;
29466;SDS011;60968;37.490;-122.288;2023-04-23T01:48:59;12.27;;;2.17;;
29466;SDS011;60968;37.490;-122.288;2023-04-23T01:52:00;8.80;;;2.60;;
29466;SDS011;60968;37.490;-122.288;2023-04-23T01:55:02;12.17;;;2.80;;
29466;SDS011;60968;37.490;-122.288;2023-04-23T01:58:03;12.43;;;3.03;;
29466;SDS011;60968;37.490;-122.288;2023-04-23T02:01:05;11.20;;;3.00;;
29466;SDS011;60968;37.490;-122.288;2023-04-23T02:04:06;10.53;;;3.20;;
29466;SDS011;60968;37.490;-122.288;2023-04-23T02:07:07;20.90;;;2.67;;
29466;SDS011;60968;37.490;-122.288;2023-04-23T02:10:09;9.17;;;2.13;;
29466;SDS011;60968;37.490;-122.288;2023-04-23T02:13:10;12.93;;;2.67;;
29466;SDS011;60968;37.490;-122.288;2023-04-23T02:16:12;14.20;;;3.27;;
29466;SDS011;60968;37.490;-122.288;2023-04-23T02:19:12;12.37;;;2.53;;
29466;SDS011;60968;37.490;-122.288;2023-04-23T02:22:13;11.27;;;2.73;;
29466;SDS011;60968;37.490;-122.288;2023-04-23T02:25:17;12.30;;;2.67;;
29466;SDS011;60968;37.490;-122.288;2023-04-23T02:28:18;14.67;;;2.77;;
29466;SDS011;60968;37.490;-122.288;2023-04-23T02:31:19;16.50;;;2.77;;
29466;SDS011;60968;37.490;-122.288;2023-04-23T02:34:21;9.60;;;2.30;;
29466;SDS011;60968;37.490;-122.288;2023-04-23T02:37:22;15.53;;;2.73;;
29466;SDS011;60968;37.490;-122.288;2023-04-23T02:40:23;12.10;;;2.67;;
29466;SDS011;60968;37.490;-122.288;2023-04-23T02:43:24;12.10;;;2.57;;
29466;SDS011;60968;37.490;-122.288;2023-04-23T02:46:25;9.43;;;2.37;;
29466;SDS011;60968;37.490;-122.288;2023-04-23T02:49:25;9.97;;;3.30;;
29466;SDS011;60968;37.490;-122.288;2023-04-23T02:52:26;16.60;;;3.00;;
29466;SDS011;60968;37.490;-122.288;2023-04-23T02:55:27;19.23;;;2.83;;
29466;SDS011;60968;37.490;-122.288;2023-04-23T02:58:28;12.07;;;2.40;;
29466;SDS011;60968;37.490;-122.288;2023-04-23T03:01:30;15.90;;;3.27;;
29466;SDS011;60968;37.490;-122.288;2023-04-23T03:04:32;16.37;;;2.97;;
29466;SDS011;60968;37.490;-122.288;2023-04-23T03:07:33;10.63;;;2.40;;
29466;SDS011;60968;37.490;-122.288;2023-04-23T03:10:33;14.63;;;3.10;;
29466;SDS011;60968;37.490;-122.288;2023-04-23T03:13:34;14.90;;;3.77;;
29466;SDS011;60968;37.490;-122.288;2023-04-23T03:16:35;10.87;;;2.77;;
29466;SDS011;60968;37.490;-122.288;2023-04-23T03:19:36;12.50;;;2.47;;
29466;SDS011;60968;37.490;-122.288;2023-04-23T03:22:37;18.00;;;2.97;;
29466;SDS011;60968;37.490;-122.288;2023-04-23T03:25:39;17.50;;;3.60;;
29466;SDS011;60968;37.490;-122.288;2023-04-23T03:28:40;15.83;;;3.03;;
29466;SDS011;60968;37.490;-122.288;2023-04-23T03:31:41;21.57;;;3.70;;
29466;SDS011;60968;37.490;-122.288;2023-04-23T03:34:42;11.70;;;2.80;;
29466;SDS011;60968;37.490;-122.288;2023-04-23T03:37:43;14.57;;;2.83;;
29466;SDS011;60968;37.490;-122.288;2023-04-23T03:40:44;10.43;;;3.03;;
29466;SDS011;60968;37.490;-122.288;2023-04-23T03:43:46;14.67;;;3.33;;
29466;SDS011;60968;37.490;-122.288;2023-04-23T03:46:47;14.20;;;3.00;;
29466;SDS011;60968;37.490;-122.288;2023-04-23T03:49:48;14.37;;;2.80;;
29466;SDS011;60968;37.490;-122.288;2023-04-23T03:52:49;11.87;;;2.40;;
29466;SDS011;60968;37.490;-122.288;2023-04-23T03:55:50;16.13;;;3.53;;
29466;SDS011;60968;37.490;-122.288;2023-04-23T03:58:53;14.17;;;3.20;;
29466;SDS011;60968;37.490;-122.288;2023-04-23T04:01:53;16.80;;;3.47;;
29466;SDS011;60968;37.490;-122.288;2023-04-23T04:04:54;15.70;;;2.80;;
29466;SDS011;60968;37.490;-122.288;2023-04-23T04:07:55;11.53;;;2.50;;
29466;SDS011;60968;37.490;-122.288;2023-04-23T04:10:56;18.50;;;3.23;;
29466;SDS011;60968;37.490;-122.288;2023-04-23T04:13:57;24.27;;;3.83;;
29466;SDS011;60968;37.490;-122.288;2023-04-23T04:16:58;14.67;;;3.20;;
29466;SDS011;60968;37.490;-122.288;2023-04-23T04:19:59;17.20;;;3.10;;
29466;SDS011;60968;37.490;-122.288;2023-04-23T04:23:00;12.17;;;2.80;;
29466;SDS011;60968;37.490;-122.288;2023-04-23T04:26:01;12.57;;;2.83;;
29466;SDS011;60968;37.490;-122.288;2023-04-23T04:29:02;18.57;;;3.47;;
29466;SDS011;60968;37.490;-122.288;2023-04-23T04:32:03;18.60;;;3.43;;
29466;SDS011;60968;37.490;-122.288;2023-04-23T04:35:04;16.30;;;3.47;;
29466;SDS011;60968;37.490;-122.288;2023-04-23T04:38:06;16.60;;;3.07;;
29466;SDS011;60968;37.490;-122.288;2023-04-23T04:41:06;18.77;;;3.50;;
29466;SDS011;60968;37.490;-122.288;2023-04-23T04:44:07;16.03;;;3.33;;
29466;SDS011;60968;37.490;-122.288;2023-04-23T04:47:09;19.67;;;3.23;;
29466;SDS011;60968;37.490;-122.288;2023-04-23T04:50:10;22.43;;;4.10;;
29466;SDS011;60968;37.490;-122.288;2023-04-23T04:53:11;23.33;;;5.10;;
29466;SDS011;60968;37.490;-122.288;2023-04-23T04:56:12;24.40;;;4.07;;
29466;SDS011;60968;37.490;-122.288;2023-04-23T04:59:13;20.60;;;3.93;;
29466;SDS011;60968;37.490;-122.288;2023-04-23T05:02:14;25.40;;;4.70;;
29466;SDS011;60968;37.490;-122.288;2023-04-23T05:05:15;19.17;;;4.20;;
29466;SDS011;60968;37.490;-122.288;2023-04-23T05:08:17;12.07;;;3.43;;
29466;SDS011;60968;37.490;-122.288;2023-04-23T05:11:19;24.97;;;4.17;;
29466;SDS011;60968;37.490;-122.288;2023-04-23T05:14:20;18.13;;;3.87;;
29466;SDS011;60968;37.490;-122.288;2023-04-23T05:17:21;18.83;;;3.00;;
29466;SDS011;60968;37.490;-122.288;2023-04-23T05:20:22;15.67;;;2.73;;
29466;SDS011;60968;37.490;-122.288;2023-04-23T05:23:23;14.30;;;3.40;;
29466;SDS011;60968;37.490;-122.288;2023-04-23T05:26:24;17.60;;;2.60;;
29466;SDS011;60968;37.490;-122.288;2023-04-23T05:29:30;16.53;;;3.07;;
29466;SDS011;60968;37.490;-122.288;2023-04-23T05:32:31;16.00;;;2.90;;
29466;SDS011;60968;37.490;-122.288;2023-04-23T05:35:32;9.90;;;2.50;;
29466;SDS011;60968;37.490;-122.288;2023-04-23T05:38:33;12.07;;;3.20;;
29466;SDS011;60968;37.490;-122.288;2023-04-23T05:41:33;11.50;;;2.63;;
29466;SDS011;60968;37.490;-122.288;2023-04-23T05:44:34;21.00;;;2.90;;
29466;SDS011;60968;37.490;-122.288;2023-04-23T05:47:35;17.37;;;2.80;;
29466;SDS011;60968;37.490;-122.288;2023-04-23T05:50:36;9.80;;;2.83;;
29466;SDS011;60968;37.490;-122.288;2023-04-23T05:53:37;10.17;;;2.50;;
29466;SDS011;60968;37.490;-122.288;2023-04-23T05:56:38;17.53;;;3.37;;
29466;SDS011;60968;37.490;-122.288;2023-04-23T05:59:39;9.67;;;2.30;;
29466;SDS011;60968;37.490;-122.288;2023-04-23T06:02:40;9.70;;;2.37;;
29466;SDS011;60968;37.490;-122.288;2023-04-23T06:05:41;17.73;;;2.53;;
29466;SDS011;60968;37.490;-122.288;2023-04-23T06:08:42;14.33;;;3.10;;
29466;SDS011;60968;37.490;-122.288;2023-04-23T06:11:45;10.63;;;2.33;;
29466;SDS011;60968;37.490;-122.288;2023-04-23T06:14:46;13.37;;;2.50;;
29466;SDS011;60968;37.490;-122.288;2023-04-23T06:17:47;13.30;;;2.37;;
29466;SDS011;60968;37.490;-122.288;2023-04-23T06:20:48;18.67;;;2.57;;
29466;SDS011;60968;37.490;-122.288;2023-04-23T06:23:49;11.67;;;2.87;;
29466;SDS011;60968;37.490;-122.288;2023-04-23T06:26:50;8.93;;;2.33;;
29466;SDS011;60968;37.490;-122.288;2023-04-23T06:29:51;11.33;;;2.03;;
29466;SDS011;60968;37.490;-122.288;2023-04-23T06:32:52;15.40;;;2.90;;
29466;SDS011;60968;37.490;-122.288;2023-04-23T06:35:53;8.30;;;2.13;;
29466;SDS011;60968;37.490;-122.288;2023-04-23T06:38:54;12.37;;;2.23;;
29466;SDS011;60968;37.490;-122.288;2023-04-23T06:41:55;12.90;;;2.00;;
29466;SDS011;60968;37.490;-122.288;2023-04-23T06:44:55;7.33;;;1.70;;
29466;SDS011;60968;37.490;-122.288;2023-04-23T06:47:56;10.73;;;1.67;;
29466;SDS011;60968;37.490;-122.288;2023-04-23T06:50:57;13.03;;;2.40;;
29466;SDS011;60968;37.490;-122.288;2023-04-23T06:53:58;13.23;;;2.47;;
29466;SDS011;60968;37.490;-122.288;2023-04-23T06:56:59;14.30;;;2.50;;
29466;SDS011;60968;37.490;-122.288;2023-04-23T07:00:00;15.27;;;2.73;;
29466;SDS011;60968;37.490;-122.288;2023-04-23T07:03:01;13.23;;;2.70;;
29466;SDS011;60968;37.490;-122.288;2023-04-23T07:06:03;14.10;;;3.03;;
29466;SDS011;60968;37.490;-122.288;2023-04-23T07:09:05;11.50;;;2.90;;
29466;SDS011;60968;37.490;-122.288;2023-04-23T07:12:06;16.77;;;3.13;;
29466;SDS011;60968;37.490;-122.288;2023-04-23T07:15:07;19.97;;;2.43;;
29466;SDS011;60968;37.490;-122.288;2023-04-23T07:18:08;18.33;;;3.60;;
29466;SDS011;60968;37.490;-122.288;2023-04-23T07:21:09;13.90;;;3.00;;
29466;SDS011;60968;37.490;-122.288;2023-04-23T07:24:10;16.77;;;2.80;;
29466;SDS011;60968;37.490;-122.288;2023-04-23T07:27:11;18.53;;;2.67;;
29466;SDS011;60968;37.490;-122.288;2023-04-23T07:30:12;14.10;;;2.77;;
29466;SDS011;60968;37.490;-122.288;2023-04-23T07:33:13;13.63;;;2.50;;
29466;SDS011;60968;37.490;-122.288;2023-04-23T07:36:14;14.20;;;3.10;;
29466;SDS011;60968;37.490;-122.288;2023-04-23T07:39:15;17.23;;;2.97;;
29466;SDS011;60968;37.490;-122.288;2023-04-23T07:42:16;12.07;;;2.23;;
29466;SDS011;60968;37.490;-122.288;2023-04-23T07:45:18;14.93;;;2.00;;
29466;SDS011;60968;37.490;-122.288;2023-04-23T07:48:19;11.00;;;1.77;;
29466;SDS011;60968;37.490;-122.288;2023-04-23T07:51:21;15.70;;;2.70;;
29466;SDS011;60968;37.490;-122.288;2023-04-23T07:54:22;12.13;;;2.10;;
29466;SDS011;60968;37.490;-122.288;2023-04-23T07:57:23;10.63;;;2.20;;
29466;SDS011;60968;37.490;-122.288;2023-04-23T08:00:24;9.50;;;1.40;;
29466;SDS011;60968;37.490;-122.288;2023-04-23T08:03:24;13.63;;;2.10;;
29466;SDS011;60968;37.490;-122.288;2023-04-23T08:06:27;14.97;;;1.80;;
29466;SDS011;60968;37.490;-122.288;2023-04-23T08:09:28;11.27;;;1.80;;
29466;SDS011;60968;37.490;-122.288;2023-04-23T08:12:29;9.93;;;1.23;;
29466;SDS011;60968;37.490;-122.288;2023-04-23T08:15:29;13.90;;;2.50;;
29466;SDS011;60968;37.490;-122.288;2023-04-23T08:18:30;6.10;;;1.77;;
29466;SDS011;60968;37.490;-122.288;2023-04-23T08:21:32;8.67;;;1.90;;
29466;SDS011;60968;37.490;-122.288;2023-04-23T08:24:34;12.20;;;1.37;;
29466;SDS011;60968;37.490;-122.288;2023-04-23T08:27:35;7.97;;;1.67;;
29466;SDS011;60968;37.490;-122.288;2023-04-23T08:30:36;8.60;;;1.90;;
29466;SDS011;60968;37.490;-122.288;2023-04-23T08:33:38;6.03;;;1.40;;
29466;SDS011;60968;37.490;-122.288;2023-04-23T08:36:39;5.17;;;1.50;;
29466;SDS011;60968;37.490;-122.288;2023-04-23T08:39:40;11.13;;;1.77;;
29466;SDS011;60968;37.490;-122.288;2023-04-23T08:42:42;10.73;;;1.90;;
29466;SDS011;60968;37.490;-122.288;2023-04-23T08:45:48;8.30;;;1.47;;
29466;SDS011;60968;37.490;-122.288;2023-04-23T08:48:49;12.00;;;1.60;;
29466;SDS011;60968;37.490;-122.288;2023-04-23T08:51:52;8.73;;;1.67;;
29466;SDS011;60968;37.490;-122.288;2023-04-23T08:54:59;12.33;;;1.80;;
29466;SDS011;60968;37.490;-122.288;2023-04-23T08:58:01;9.63;;;1.83;;
29466;SDS011;60968;37.490;-122.288;2023-04-23T09:01:03;12.43;;;2.00;;
29466;SDS011;60968;37.490;-122.288;2023-04-23T09:04:04;4.80;;;1.17;;
29466;SDS011;60968;37.490;-122.288;2023-04-23T09:07:05;8.13;;;1.57;;
29466;SDS011;60968;37.490;-122.288;2023-04-23T09:10:08;10.83;;;1.53;;
29466;SDS011;60968;37.490;-122.288;2023-04-23T09:13:11;10.83;;;2.20;;
29466;SDS011;60968;37.490;-122.288;2023-04-23T09:16:12;7.87;;;1.80;;
29466;SDS011;60968;37.490;-122.288;2023-04-23T09:19:14;7.20;;;1.33;;
29466;SDS011;60968;37.490;-122.288;2023-04-23T09:22:36;3.97;;;1.10;;
29466;SDS011;60968;37.490;-122.288;2023-04-23T09:25:41;7.47;;;1.43;;
29466;SDS011;60968;37.490;-122.288;2023-04-23T09:28:42;5.23;;;1.20;;
29466;SDS011;60968;37.490;-122.288;2023-04-23T09:31:45;10.27;;;1.53;;
29466;SDS011;60968;37.490;-122.288;2023-04-23T09:34:47;5.77;;;1.47;;
29466;SDS011;60968;37.490;-122.288;2023-04-23T09:37:56;7.90;;;1.37;;
29466;SDS011;60968;37.490;-122.288;2023-04-23T09:40:57;5.97;;;1.00;;
29466;SDS011;60968;37.490;-122.288;2023-04-23T09:43:58;4.17;;;1.13;;
29466;SDS011;60968;37.490;-122.288;2023-04-23T09:47:08;4.63;;;1.20;;
29466;SDS011;60968;37.490;-122.288;2023-04-23T09:50:09;2.37;;;0.80;;
29466;SDS011;60968;37.490;-122.288;2023-04-23T09:53:10;6.40;;;1.03;;
29466;SDS011;60968;37.490;-122.288;2023-04-23T09:56:13;6.20;;;1.20;;
29466;SDS011;60968;37.490;-122.288;2023-04-23T09:59:18;4.43;;;1.03;;
29466;SDS011;60968;37.490;-122.288;2023-04-23T10:02:26;1.50;;;0.70;;
29466;SDS011;60968;37.490;-122.288;2023-04-23T10:05:27;2.17;;;1.03;;
29466;SDS011;60968;37.490;-122.288;2023-04-23T10:08:31;2.27;;;0.57;;
29466;SDS011;60968;37.490;-122.288;2023-04-23T10:11:32;2.17;;;0.57;;
29466;SDS011;60968;37.490;-122.288;2023-04-23T10:14:33;3.73;;;1.17;;
29466;SDS011;60968;37.490;-122.288;2023-04-23T10:17:35;1.50;;;0.40;;
29466;SDS011;60968;37.490;-122.288;2023-04-23T10:20:37;1.43;;;0.60;;
29466;SDS011;60968;37.490;-122.288;2023-04-23T10:23:40;1.70;;;0.30;;
29466;SDS011;60968;37.490;-122.288;2023-04-23T10:26:43;2.70;;;0.53;;
29466;SDS011;60968;37.490;-122.288;2023-04-23T10:29:45;1.70;;;0.37;;
29466;SDS011;60968;37.490;-122.288;2023-04-23T10:32:48;1.17;;;0.50;;
29466;SDS011;60968;37.490;-122.288;2023-04-23T10:35:49;2.40;;;0.30;;
29466;SDS011;60968;37.490;-122.288;2023-04-23T10:38:50;1.70;;;0.50;;
29466;SDS011;60968;37.490;-122.288;2023-04-23T10:41:52;2.53;;;0.30;;
29466;SDS011;60968;37.490;-122.288;2023-04-23T10:44:57;2.23;;;0.30;;
29466;SDS011;60968;37.490;-122.288;2023-04-23T10:47:59;0.60;;;0.30;;
29466;SDS011;60968;37.490;-122.288;2023-04-23T10:51:00;0.43;;;0.20;;
29466;SDS011;60968;37.490;-122.288;2023-04-23T10:54:02;0.63;;;0.30;;
29466;SDS011;60968;37.490;-122.288;2023-04-23T10:57:04;1.10;;;0.33;;
29466;SDS011;60968;37.490;-122.288;2023-04-23T11:00:06;0.20;;;0.20;;
29466;SDS011;60968;37.490;-122.288;2023-04-23T11:09:51;0.27;;;0.20;;
29466;SDS011;60968;37.490;-122.288;2023-04-23T11:12:54;1.93;;;0.30;;
29466;SDS011;60968;37.490;-122.288;2023-04-23T11:16:14;1.73;;;0.20;;
29466;SDS011;60968;37.490;-122.288;2023-04-23T11:19:21;0.77;;;0.27;;
29466;SDS011;60968;37.490;-122.288;2023-04-23T11:22:22;0.40;;;0.10;;
29466;SDS011;60968;37.490;-122.288;2023-04-23T11:25:24;0.30;;;0.23;;
29466;SDS011;60968;37.490;-122.288;2023-04-23T11:28:26;0.27;;;0.27;;
29466;SDS011;60968;37.490;-122.288;2023-04-23T11:31:30;1.17;;;0.30;;
29466;SDS011;60968;37.490;-122.288;2023-04-23T11:34:32;0.23;;;0.20;;
29466;SDS011;60968;37.490;-122.288;2023-04-23T11:37:37;0.27;;;0.20;;
29466;SDS011;60968;37.490;-122.288;2023-04-23T11:40:39;0.43;;;0.17;;
29466;SDS011;60968;37.490;-122.288;2023-04-23T11:43:41;0.47;;;0.30;;
29466;SDS011;60968;37.490;-122.288;2023-04-23T11:46:42;0.90;;;0.10;;
29466;SDS011;60968;37.490;-122.288;2023-04-23T11:49:45;0.20;;;0.20;;
29466;SDS011;60968;37.490;-122.288;2023-04-23T11:52:47;0.10;;;0.10;;
29466;SDS011;60968;37.490;-122.288;2023-04-23T11:55:49;0.10;;;0.10;;
29466;SDS011;60968;37.490;-122.288;2023-04-23T11:59:02;1.53;;;0.20;;
29466;SDS011;60968;37.490;-122.288;2023-04-23T12:02:04;0.17;;;0.10;;
29466;SDS011;60968;37.490;-122.288;2023-04-23T12:05:05;0.50;;;0.20;;
29466;SDS011;60968;37.490;-122.288;2023-04-23T12:11:20;0.13;;;0.13;;
29466;SDS011;60968;37.490;-122.288;2023-04-23T12:14:27;0.30;;;0.10;;
29466;SDS011;60968;37.490;-122.288;2023-04-23T12:17:30;0.43;;;0.17;;
29466;SDS011;60968;37.490;-122.288;2023-04-23T12:20:32;0.87;;;0.10;;
29466;SDS011;60968;37.490;-122.288;2023-04-23T12:23:34;0.30;;;0.20;;
29466;SDS011;60968;37.490;-122.288;2023-04-23T12:26:36;0.50;;;0.10;;
29466;SDS011;60968;37.490;-122.288;2023-04-23T12:29:37;1.47;;;0.13;;
29466;SDS011;60968;37.490;-122.288;2023-04-23T12:32:38;0.07;;;0.07;;
29466;SDS011;60968;37.490;-122.288;2023-04-23T12:35:49;0.30;;;0.10;;
29466;SDS011;60968;37.490;-122.288;2023-04-23T12:38:50;0.20;;;0.20;;
29466;SDS011;60968;37.490;-122.288;2023-04-23T12:41:58;0.10;;;0.10;;
29466;SDS011;60968;37.490;-122.288;2023-04-23T12:45:06;0.10;;;0.10;;
29466;SDS011;60968;37.490;-122.288;2023-04-23T12:48:08;0.10;;;0.10;;
29466;SDS011;60968;37.490;-122.288;2023-04-23T12:51:08;1.37;;;0.20;;
29466;SDS011;60968;37.490;-122.288;2023-04-23T12:54:10;0.40;;;0.10;;
29466;SDS011;60968;37.490;-122.288;2023-04-23T12:57:12;0.10;;;0.10;;
29466;SDS011;60968;37.490;-122.288;2023-04-23T13:00:13;0.63;;;0.10;;
29466;SDS011;60968;37.490;-122.288;2023-04-23T13:03:14;0.00;;;0.00;;
29466;SDS011;60968;37.490;-122.288;2023-04-23T13:06:15;0.30;;;0.10;;
29466;SDS011;60968;37.490;-122.288;2023-04-23T13:09:16;0.10;;;0.10;;
29466;SDS011;60968;37.490;-122.288;2023-04-23T13:12:17;0.47;;;0.10;;
29466;SDS011;60968;37.490;-122.288;2023-04-23T13:15:18;0.10;;;0.10;;
29466;SDS011;60968;37.490;-122.288;2023-04-23T13:18:20;0.43;;;0.10;;
29466;SDS011;60968;37.490;-122.288;2023-04-23T13:21:21;0.57;;;0.10;;
29466;SDS011;60968;37.490;-122.288;2023-04-23T13:24:22;0.00;;;0.00;;
29466;SDS011;60968;37.490;-122.288;2023-04-23T13:27:26;0.10;;;0.10;;
29466;SDS011;60968;37.490;-122.288;2023-04-23T13:30:28;1.90;;;0.10;;
29466;SDS011;60968;37.490;-122.288;2023-04-23T13:33:29;0.00;;;0.00;;
29466;SDS011;60968;37.490;-122.288;2023-04-23T13:36:30;0.00;;;0.00;;
29466;SDS011;60968;37.490;-122.288;2023-04-23T13:39:31;0.20;;;0.10;;
29466;SDS011;60968;37.490;-122.288;2023-04-23T13:42:32;0.10;;;0.10;;
29466;SDS011;60968;37.490;-122.288;2023-04-23T13:45:33;0.00;;;0.00;;
29466;SDS011;60968;37.490;-122.288;2023-04-23T13:48:34;0.10;;;0.10;;
29466;SDS011;60968;37.490;-122.288;2023-04-23T13:51:36;0.30;;;0.10;;
29466;SDS011;60968;37.490;-122.288;2023-04-23T13:54:37;0.00;;;0.00;;
29466;SDS011;60968;37.490;-122.288;2023-04-23T13:57:38;0.20;;;0.20;;
29466;SDS011;60968;37.490;-122.288;2023-04-23T14:00:40;1.13;;;0.10;;
29466;SDS011;60968;37.490;-122.288;2023-04-23T14:03:42;0.30;;;0.10;;
29466;SDS011;60968;37.490;-122.288;2023-04-23T14:06:43;0.83;;;0.10;;
29466;SDS011;60968;37.490;-122.288;2023-04-23T14:09:44;0.00;;;0.00;;
29466;SDS011;60968;37.490;-122.288;2023-04-23T14:12:45;0.10;;;0.10;;
29466;SDS011;60968;37.490;-122.288;2023-04-23T14:15:46;0.10;;;0.10;;
29466;SDS011;60968;37.490;-122.288;2023-04-23T14:18:47;0.50;;;0.10;;
29466;SDS011;60968;37.490;-122.288;2023-04-23T14:21:47;0.57;;;0.13;;
29466;SDS011;60968;37.490;-122.288;2023-04-23T14:24:49;0.10;;;0.10;;
29466;SDS011;60968;37.490;-122.288;2023-04-23T14:27:55;0.10;;;0.10;;
29466;SDS011;60968;37.490;-122.288;2023-04-23T14:30:56;0.10;;;0.10;;
29466;SDS011;60968;37.490;-122.288;2023-04-23T14:33:57;0.10;;;0.10;;
29466;SDS011;60968;37.490;-122.288;2023-04-23T14:36:58;1.00;;;0.20;;
29466;SDS011;60968;37.490;-122.288;2023-04-23T14:40:01;2.10;;;0.17;;
29466;SDS011;60968;37.490;-122.288;2023-04-23T14:43:02;0.40;;;0.10;;
29466;SDS011;60968;37.490;-122.288;2023-04-23T14:46:03;0.40;;;0.17;;
29466;SDS011;60968;37.490;-122.288;2023-04-23T14:49:05;1.27;;;0.10;;
29466;SDS011;60968;37.490;-122.288;2023-04-23T14:52:06;0.10;;;0.10;;
29466;SDS011;60968;37.490;-122.288;2023-04-23T14:55:07;0.47;;;0.20;;
29466;SDS011;60968;37.490;-122.288;2023-04-23T14:58:10;0.30;;;0.20;;
29466;SDS011;60968;37.490;-122.288;2023-04-23T15:01:11;0.13;;;0.13;;
29466;SDS011;60968;37.490;-122.288;2023-04-23T15:04:12;0.20;;;0.20;;
29466;SDS011;60968;37.490;-122.288;2023-04-23T15:07:13;0.20;;;0.20;;
29466;SDS011;60968;37.490;-122.288;2023-04-23T15:10:13;0.20;;;0.20;;
29466;SDS011;60968;37.490;-122.288;2023-04-23T15:16:38;0.40;;;0.38;;
29466;SDS011;60968;37.490;-122.288;2023-04-23T15:19:39;0.40;;;0.40;;
29466;SDS011;60968;37.490;-122.288;2023-04-23T15:22:40;0.50;;;0.50;;
29466;SDS011;60968;37.490;-122.288;2023-04-23T15:25:42;0.85;;;0.60;;
29466;SDS011;60968;37.490;-122.288;2023-04-23T15:28:43;0.95;;;0.57;;
29466;SDS011;60968;37.490;-122.288;2023-04-23T15:31:44;0.50;;;0.50;;
29466;SDS011;60968;37.490;-122.288;2023-04-23T15:34:45;0.40;;;0.40;;
29466;SDS011;60968;37.490;-122.288;2023-04-23T15:37:46;0.50;;;0.40;;
29466;SDS011;60968;37.490;-122.288;2023-04-23T15:40:46;0.45;;;0.45;;
29466;SDS011;60968;37.490;-122.288;2023-04-23T15:43:48;0.65;;;0.60;;
29466;SDS011;60968;37.490;-122.288;2023-04-23T15:46:49;0.50;;;0.50;;
29466;SDS011;60968;37.490;-122.288;2023-04-23T15:49:51;0.60;;;0.60;;
29466;SDS011;60968;37.490;-122.288;2023-04-23T15:52:52;0.60;;;0.60;;
29466;SDS011;60968;37.490;-122.288;2023-04-23T15:55:53;1.40;;;0.80;;
29466;SDS011;60968;37.490;-122.288;2023-04-23T15:59:07;0.90;;;0.90;;
29466;SDS011;60968;37.490;-122.288;2023-04-23T16:02:08;0.93;;;0.90;;
29466;SDS011;60968;37.490;-122.288;2023-04-23T16:05:10;1.48;;;0.90;;
29466;SDS011;60968;37.490;-122.288;2023-04-23T16:08:12;0.90;;;0.90;;
29466;SDS011;60968;37.490;-122.288;2023-04-23T16:11:13;1.15;;;1.10;;
29466;SDS011;60968;37.490;-122.288;2023-04-23T16:14:14;1.13;;;1.02;;
29466;SDS011;60968;37.490;-122.288;2023-04-23T16:17:15;1.70;;;1.20;;
29466;SDS011;60968;37.490;-122.288;2023-04-23T16:20:16;1.00;;;1.00;;
29466;SDS011;60968;37.490;-122.288;2023-04-23T16:23:17;1.10;;;1.10;;
29466;SDS011;60968;37.490;-122.288;2023-04-23T16:26:20;1.00;;;1.00;;
29466;SDS011;60968;37.490;-122.288;2023-04-23T16:29:41;1.05;;;1.05;;
29466;SDS011;60968;37.490;-122.288;2023-04-23T16:32:42;1.00;;;1.00;;
29466;SDS011;60968;37.490;-122.288;2023-04-23T16:35:43;1.00;;;1.00;;
29466;SDS011;60968;37.490;-122.288;2023-04-23T16:38:44;0.77;;;0.77;;
29466;SDS011;60968;37.490;-122.288;2023-04-23T16:41:45;0.55;;;0.55;;
29466;SDS011;60968;37.490;-122.288;2023-04-23T16:44:46;0.90;;;0.43;;
29466;SDS011;60968;37.490;-122.288;2023-04-23T16:47:48;0.40;;;0.40;;
29466;SDS011;60968;37.490;-122.288;2023-04-23T16:50:49;0.40;;;0.30;;
29466;SDS011;60968;37.490;-122.288;2023-04-23T16:53:51;0.83;;;0.20;;
29466;SDS011;60968;37.490;-122.288;2023-04-23T16:56:52;1.13;;;0.30;;
29466;SDS011;60968;37.490;-122.288;2023-04-23T16:59:53;1.20;;;0.20;;
29466;SDS011;60968;37.490;-122.288;2023-04-23T17:02:54;0.20;;;0.20;;
29466;SDS011;60968;37.490;-122.288;2023-04-23T17:06:07;0.77;;;0.23;;
29466;SDS011;60968;37.490;-122.288;2023-04-23T17:09:27;0.40;;;0.20;;
29466;SDS011;60968;37.490;-122.288;2023-04-23T17:12:29;2.37;;;0.10;;
29466;SDS011;60968;37.490;-122.288;2023-04-23T17:15:29;0.30;;;0.20;;
29466;SDS011;60968;37.490;-122.288;2023-04-23T17:18:30;0.50;;;0.37;;
29466;SDS011;60968;37.490;-122.288;2023-04-23T17:21:31;0.80;;;0.37;;
29466;SDS011;60968;37.490;-122.288;2023-04-23T17:24:32;0.43;;;0.40;;
29466;SDS011;60968;37.490;-122.288;2023-04-23T17:27:33;2.47;;;0.50;;
29466;SDS011;60968;37.490;-122.288;2023-04-23T17:30:34;2.28;;;0.77;;
29466;SDS011;60968;37.490;-122.288;2023-04-23T17:33:36;0.90;;;0.90;;
29466;SDS011;60968;37.490;-122.288;2023-04-23T17:36:37;1.08;;;0.98;;